Time;durP1;ratioP1;P1;durP2;ratioP2;P2;SDS_P1;SDS_P2;PMS_P1;PMS_P2;Temp;Humidity;BMP_temperature;BMP_pressure;BME280_temperature;BME280_humidity;BME280_pressure;Samples;Min_cycle;Max_cycle;Signal;HPM_P1;HPM_P2
2021/01/29 00:00:31;;;;;;;27.23;14.30;;;;;;;-0.44;74.76;97205.14;123939;1108;104255;-72
2021/01/29 00:03:14;;;;;;;27.90;15.67;;;;;;;-0.43;74.52;97207.64;123920;1108;104277;-73
2021/01/29 00:05:45;;;;;;;26.40;13.80;;;;;;;-0.40;75.01;97198.78;123910;1109;104322;-72
2021/01/29 00:08:14;;;;;;;28.93;14.53;;;;;;;-0.40;75.10;97204.86;123900;1109;104166;-72
2021/01/29 00:10:43;;;;;;;26.50;14.23;;;;;;;-0.39;75.03;97203.07;123927;1106;104184;-73
2021/01/29 00:13:11;;;;;;;28.07;15.03;;;;;;;-0.37;74.62;97209.05;123930;1109;104223;-72
2021/01/29 00:15:40;;;;;;;28.73;14.43;;;;;;;-0.37;74.40;97212.52;123953;1109;104197;-72
2021/01/29 00:18:08;;;;;;;27.83;15.03;;;;;;;-0.35;74.78;97212.41;123932;1108;104168;-73
2021/01/29 00:20:35;;;;;;;24.63;12.43;;;;;;;-0.34;75.55;97217.56;123912;1109;104226;-72
2021/01/29 00:23:03;;;;;;;27.47;14.23;;;;;;;-0.32;75.03;97214.85;123977;1109;104223;-74
2021/01/29 00:25:34;;;;;;;30.10;14.27;;;;;;;-0.31;74.62;97216.53;124083;1109;104319;-74
2021/01/29 00:28:03;;;;;;;27.87;13.67;;;;;;;-0.28;74.99;97221.58;124690;1107;104313;-73
2021/01/29 00:30:32;;;;;;;27.13;13.63;;;;;;;-0.26;74.95;97219.73;123879;1109;104165;-72
2021/01/29 00:33:01;;;;;;;28.87;15.33;;;;;;;-0.23;74.94;97222.16;124139;1109;104616;-73
2021/01/29 00:35:32;;;;;;;24.67;13.00;;;;;;;-0.21;75.15;97230.75;123884;1108;104178;-74
2021/01/29 00:38:02;;;;;;;22.23;10.93;;;;;;;-0.19;75.01;97231.50;124005;1109;104307;-73
2021/01/29 00:40:29;;;;;;;25.60;13.05;;;;;;;-0.17;75.13;97227.03;123997;1109;104456;-74
2021/01/29 00:42:59;;;;;;;28.57;13.90;;;;;;;-0.16;75.51;97233.09;123899;1109;104268;-73
2021/01/29 00:45:35;;;;;;;26.60;13.80;;;;;;;-0.16;75.38;97236.55;123925;1109;104264;-72
2021/01/29 00:48:07;;;;;;;25.83;13.60;;;;;;;-0.14;75.08;97225.17;123913;1109;104245;-73
2021/01/29 00:50:36;;;;;;;25.33;13.33;;;;;;;-0.16;75.40;97222.63;123920;1109;104245;-73
2021/01/29 00:53:07;;;;;;;24.67;12.47;;;;;;;-0.16;75.40;97210.42;124349;1108;104649;-74
2021/01/29 00:55:34;;;;;;;27.50;13.97;;;;;;;-0.17;75.27;97221.80;123950;1109;104685;-74
2021/01/29 00:58:03;;;;;;;24.60;13.35;;;;;;;-0.14;75.18;97222.56;123910;1109;104190;-73
2021/01/29 01:00:30;;;;;;;23.30;11.87;;;;;;;-0.14;75.11;97215.55;123938;1108;104171;-73
2021/01/29 01:02:57;;;;;;;24.23;12.00;;;;;;;-0.12;75.75;97218.08;124062;1108;104616;-75
2021/01/29 01:05:29;;;;;;;24.57;13.13;;;;;;;-0.11;75.42;97215.36;123954;1109;104159;-75
2021/01/29 01:07:57;;;;;;;24.97;13.47;;;;;;;-0.10;75.82;97214.44;123951;1108;104280;-73
2021/01/29 01:10:25;;;;;;;23.27;11.60;;;;;;;-0.07;75.43;97219.48;123943;1109;104194;-73
2021/01/29 01:12:53;;;;;;;25.50;13.73;;;;;;;-0.05;75.49;97224.64;123907;1108;104246;-72
2021/01/29 01:15:25;;;;;;;27.70;15.00;;;;;;;-0.02;75.29;97220.05;123986;1108;104271;-73
2021/01/29 01:17:58;;;;;;;25.03;13.47;;;;;;;-0.02;75.79;97224.45;123982;1108;104310;-72
2021/01/29 01:20:29;;;;;;;26.80;15.23;;;;;;;-0.01;76.00;97208.67;123960;1106;104261;-72
2021/01/29 01:22:59;;;;;;;24.60;12.70;;;;;;;0.01;75.83;97205.13;124011;1109;104182;-72
2021/01/29 01:25:28;;;;;;;25.80;13.83;;;;;;;-0.02;75.55;97206.98;124050;1108;104224;-73
2021/01/29 01:27:57;;;;;;;25.87;13.30;;;;;;;0.00;75.64;97206.91;123948;1109;104373;-73
2021/01/29 01:30:34;;;;;;;23.20;12.47;;;;;;;-0.01;75.26;97200.83;124570;1109;104184;-72
2021/01/29 01:33:01;;;;;;;26.87;13.63;;;;;;;0.00;75.58;97201.68;123879;1109;104194;-73
2021/01/29 01:35:30;;;;;;;28.50;14.53;;;;;;;0.01;75.41;97207.73;123928;1109;104194;-74
2021/01/29 01:37:57;;;;;;;27.00;14.35;;;;;;;0.02;75.88;97198.96;123970;1109;104255;-73
2021/01/29 01:40:31;;;;;;;29.25;15.75;;;;;;;0.05;75.66;97196.99;123979;1105;104188;-73
2021/01/29 01:42:58;;;;;;;27.80;14.63;;;;;;;0.08;75.58;97182.91;123890;1108;104198;-74
2021/01/29 01:45:28;;;;;;;27.13;14.73;;;;;;;0.10;75.96;97186.27;123946;1109;104160;-71
2021/01/29 01:48:07;;;;;;;26.20;13.80;;;;;;;0.12;75.62;97189.64;123934;1108;104269;-72
2021/01/29 01:50:44;;;;;;;28.57;14.23;;;;;;;0.14;75.81;97191.22;124321;1109;104650;-73
2021/01/29 01:53:26;;;;;;;26.73;14.53;;;;;;;0.19;75.99;97192.71;123924;1105;104354;-73
2021/01/29 01:56:19;;;;;;;27.10;14.73;;;;;;;0.19;75.67;97190.95;123979;1106;104783;-73
2021/01/29 01:58:56;;;;;;;29.20;15.20;;;;;;;0.24;76.11;97194.11;123922;1109;104139;-73
2021/01/29 02:01:25;;;;;;;27.13;15.47;;;;;;;0.27;76.10;97203.55;123955;1106;104319;-72
2021/01/29 02:03:56;;;;;;;26.20;14.67;;;;;;;0.26;75.72;97191.41;123954;1108;104271;-72
2021/01/29 02:06:25;;;;;;;26.10;14.25;;;;;;;0.27;75.46;97195.70;123922;1109;104335;-73
2021/01/29 02:08:58;;;;;;;28.23;14.77;;;;;;;0.28;75.83;97194.78;123950;1105;104329;-72
2021/01/29 02:11:25;;;;;;;26.82;14.18;;;;;;;0.31;75.83;97198.97;123952;1106;104229;-73
2021/01/29 02:13:57;;;;;;;28.53;15.33;;;;;;;0.32;75.86;97196.27;123919;1107;104284;-73
2021/01/29 02:17:00;;;;;;;25.95;13.55;;;;;;;0.35;76.38;97198.70;123939;1108;104309;-72
2021/01/29 02:19:55;;;;;;;27.60;15.20;;;;;;;0.37;75.62;97199.45;123890;1108;104230;-71
2021/01/29 02:23:06;;;;;;;27.20;14.97;;;;;;;0.41;76.34;97200.09;123994;1107;104159;-74
2021/01/29 02:26:25;;;;;;;25.87;13.60;;;;;;;0.41;76.05;97200.09;123873;1109;104246;-72
2021/01/29 02:29:29;;;;;;;27.10;14.90;;;;;;;0.41;75.75;97207.94;123968;1109;104191;-72
2021/01/29 02:32:48;;;;;;;24.95;12.70;;;;;;;0.40;75.94;97207.11;123895;1108;104284;-72
2021/01/29 02:36:20;;;;;;;26.07;13.47;;;;;;;0.41;76.26;97206.14;123749;1112;104771;-73
2021/01/29 02:38:57;;;;;;;26.40;13.57;;;;;;;0.41;76.20;97205.32;123614;1112;104309;-73
2021/01/29 02:41:30;;;;;;;27.03;14.17;;;;;;;0.42;76.26;97207.00;123686;1109;104428;-73
2021/01/29 02:44:18;;;;;;;26.80;14.23;;;;;;;0.42;76.47;97212.23;124786;1109;104226;-73
2021/01/29 02:46:53;;;;;;;27.70;15.23;;;;;;;0.41;76.18;97216.61;124377;1108;104242;-73
2021/01/29 02:50:01;;;;;;;26.87;15.15;;;;;;;0.44;76.53;97219.04;123948;1107;104217;-72
2021/01/29 02:53:03;;;;;;;25.70;14.30;;;;;;;0.46;76.31;97218.97;123904;1106;104296;-73
2021/01/29 02:55:38;;;;;;;25.93;14.10;;;;;;;0.44;76.10;97226.06;123900;1106;104188;-74
2021/01/29 02:58:23;;;;;;;27.40;15.03;;;;;;;0.42;76.06;97220.08;123987;1109;104309;-74
2021/01/29 03:01:18;;;;;;;27.60;15.17;;;;;;;0.44;76.33;97220.83;123945;1109;104567;-73
2021/01/29 03:04:13;;;;;;;27.40;14.93;;;;;;;0.44;76.46;97221.66;124803;1108;104672;-74
2021/01/29 03:06:59;;;;;;;28.37;14.50;;;;;;;0.44;76.42;97216.42;123951;1108;104299;-73
2021/01/29 03:09:29;;;;;;;27.73;14.30;;;;;;;0.44;76.55;97232.12;123973;1109;104269;-73
2021/01/29 03:12:06;;;;;;;30.43;16.27;;;;;;;0.45;76.28;97235.59;123954;1109;104165;-74
2021/01/29 03:14:44;;;;;;;30.10;16.53;;;;;;;0.49;76.58;97237.09;124431;1109;104265;-73
2021/01/29 03:17:33;;;;;;;29.90;16.05;;;;;;;0.49;76.59;97236.23;124011;1106;104246;-73
2021/01/29 03:20:16;;;;;;;29.77;16.33;;;;;;;0.49;76.60;97239.70;123922;1108;104188;-73
2021/01/29 03:23:05;;;;;;;30.23;17.20;;;;;;;0.50;76.70;97246.62;123913;1105;104203;-73
2021/01/29 03:25:42;;;;;;;30.57;16.27;;;;;;;0.50;76.52;97248.38;123960;1109;104187;-73
2021/01/29 03:28:15;;;;;;;30.73;16.20;;;;;;;0.51;76.79;97242.22;124678;1105;104271;-73
2021/01/29 03:30:48;;;;;;;33.60;18.33;;;;;;;0.52;76.64;97239.52;123958;1105;104188;-74
2021/01/29 03:33:19;;;;;;;31.80;16.80;;;;;;;0.53;76.39;97230.73;123902;1105;104325;-73
2021/01/29 03:35:57;;;;;;;34.90;18.53;;;;;;;0.53;76.56;97228.13;123878;1105;104207;-73
2021/01/29 03:38:46;;;;;;;33.10;18.20;;;;;;;0.54;76.42;97237.66;124343;1105;104249;-73
2021/01/29 03:41:19;;;;;;;41.03;20.40;;;;;;;0.56;76.58;97232.31;123965;1109;104165;-73
2021/01/29 03:44:00;;;;;;;32.63;17.27;;;;;;;0.55;77.06;97239.34;123997;1105;104749;-74
2021/01/29 03:46:39;;;;;;;34.80;18.50;;;;;;;0.55;76.47;97246.33;123977;1109;104329;-74
2021/01/29 03:49:26;;;;;;;33.77;19.10;;;;;;;0.50;76.98;97244.00;124080;1105;104185;-72
2021/01/29 03:52:18;;;;;;;34.83;18.20;;;;;;;0.50;76.71;97245.77;123911;1109;104142;-73
2021/01/29 03:55:02;;;;;;;37.87;20.23;;;;;;;0.50;76.87;97243.15;123959;1108;104165;-74
2021/01/29 03:57:40;;;;;;;41.87;22.73;;;;;;;0.53;76.94;97229.88;124053;1109;104191;-74
2021/01/29 04:00:16;;;;;;;39.63;21.67;;;;;;;0.56;77.07;97227.94;123916;1106;104246;-73
2021/01/29 04:03:01;;;;;;;43.27;22.83;;;;;;;0.57;77.01;97233.99;123926;1106;104189;-72
2021/01/29 04:05:57;;;;;;;46.63;24.83;;;;;;;0.57;76.93;97237.47;123988;1109;104265;-73
2021/01/29 04:08:46;;;;;;;43.93;23.30;;;;;;;0.60;76.71;97241.66;123916;1109;104162;-73
2021/01/29 04:11:22;;;;;;;44.05;21.90;;;;;;;0.61;77.23;97252.98;123963;1108;104194;-72
2021/01/29 04:14:00;;;;;;;46.13;24.37;;;;;;;0.61;76.97;97248.57;123985;1108;104315;-73
2021/01/29 04:16:36;;;;;;;45.87;25.57;;;;;;;0.63;77.16;97253.70;124376;1108;104214;-73
2021/01/29 04:19:13;;;;;;;42.03;23.37;;;;;;;0.63;77.22;97264.16;123948;1109;104207;-72
2021/01/29 04:21:55;;;;;;;51.85;26.75;;;;;;;0.64;77.07;97266.70;123909;1108;104268;-72
2021/01/29 04:24:31;;;;;;;47.83;26.30;;;;;;;0.64;77.30;97269.31;124053;1108;104191;-72
2021/01/29 04:27:13;;;;;;;53.57;27.13;;;;;;;0.63;77.01;97261.55;124027;1109;104261;-74
2021/01/29 04:30:02;;;;;;;48.07;26.23;;;;;;;0.64;76.77;97265.84;123976;1107;104264;-74
2021/01/29 04:32:36;;;;;;;46.63;25.00;;;;;;;0.63;76.74;97267.64;123903;1108;104262;-73
2021/01/29 04:35:08;;;;;;;41.57;21.17;;;;;;;0.63;76.88;97279.86;123926;1109;104179;-75
2021/01/29 04:37:42;;;;;;;48.53;25.33;;;;;;;0.61;76.92;97268.68;123931;1109;104650;-73
2021/01/29 04:40:25;;;;;;;46.20;23.40;;;;;;;0.61;77.42;97273.91;123924;1108;104230;-73
2021/01/29 04:43:24;;;;;;;45.85;23.50;;;;;;;0.61;77.22;97285.20;124188;1108;104188;-73
2021/01/29 04:46:44;;;;;;;40.43;21.73;;;;;;;0.58;76.61;97288.86;123742;1109;104258;-73
2021/01/29 04:49:24;;;;;;;41.70;23.47;;;;;;;0.55;77.02;97289.05;123542;1112;104261;-74
2021/01/29 04:52:13;;;;;;;44.53;22.97;;;;;;;0.53;77.18;97292.67;123529;1112;104252;-73
2021/01/29 04:54:52;;;;;;;42.47;21.20;;;;;;;0.51;77.14;97294.53;123736;1108;104306;-73
2021/01/29 04:58:00;;;;;;;46.57;20.83;;;;;;;0.48;76.78;97302.56;123839;1109;104327;-74
2021/01/29 05:00:27;;;;;;;37.50;18.97;;;;;;;0.44;76.92;97309.77;123810;1108;104230;-71
2021/01/29 05:03:23;;;;;;;37.90;19.63;;;;;;;0.39;77.04;97309.20;123796;1108;104249;-71
2021/01/29 05:06:17;;;;;;;39.93;19.13;;;;;;;0.32;77.16;97300.89;123818;1109;104187;-72
2021/01/29 05:09:02;;;;;;;36.33;17.23;;;;;;;0.25;76.50;97318.70;123790;1109;104168;-71
2021/01/29 05:12:03;;;;;;;31.80;15.70;;;;;;;0.13;76.59;97317.65;123634;1106;104252;-73
2021/01/29 05:14:51;;;;;;;28.70;13.20;;;;;;;0.02;76.59;97309.58;123874;1109;104197;-74
2021/01/29 05:17:30;;;;;;;31.63;13.77;;;;;;;-0.11;76.55;97304.23;123870;1109;104280;-75
2021/01/29 05:20:25;;;;;;;30.83;14.90;;;;;;;-0.26;76.84;97319.02;123782;1108;104287;-72
2021/01/29 05:22:56;;;;;;;30.87;14.43;;;;;;;-0.33;76.81;97326.37;123774;1109;104329;-73
2021/01/29 05:25:32;;;;;;;30.20;14.40;;;;;;;-0.36;77.06;97325.69;123854;1109;104188;-71
2021/01/29 05:28:18;;;;;;;29.43;13.20;;;;;;;-0.43;76.31;97332.20;123791;1109;104371;-71
2021/01/29 05:30:53;;;;;;;28.37;13.87;;;;;;;-0.49;76.42;97338.59;123859;1109;104267;-71
2021/01/29 05:33:54;;;;;;;29.30;13.45;;;;;;;-0.52;76.54;97344.84;123827;1107;104290;-71
2021/01/29 05:36:59;;;;;;;29.70;12.30;;;;;;;-0.57;76.18;97340.78;123925;1109;104432;-71
2021/01/29 05:39:29;;;;;;;30.77;12.77;;;;;;;-0.66;76.75;97348.22;123824;1107;104280;-72
2021/01/29 05:42:07;;;;;;;25.63;10.97;;;;;;;-0.73;76.80;97351.23;123895;1109;104271;-72
2021/01/29 05:44:44;;;;;;;25.00;11.00;;;;;;;-0.84;76.31;97351.82;123805;1108;104271;-72
2021/01/29 05:47:45;;;;;;;24.80;9.80;;;;;;;-0.96;75.74;97354.16;123892;1108;104268;-73
2021/01/29 05:50:38;;;;;;;21.73;8.17;;;;;;;-1.13;75.76;97356.84;123830;1109;104315;-70
2021/01/29 05:53:30;;;;;;;18.50;6.90;;;;;;;-1.29;76.02;97362.84;123864;1106;104205;-73
2021/01/29 05:56:06;;;;;;;18.87;6.43;;;;;;;-1.45;75.96;97354.15;123917;1109;104223;-71
2021/01/29 05:59:01;;;;;;;17.27;6.23;;;;;;;-1.56;75.97;97359.89;123807;1109;104163;-72
2021/01/29 06:01:42;;;;;;;20.60;7.07;;;;;;;-1.70;75.73;97357.98;123748;1108;104181;-70
2021/01/29 06:04:39;;;;;;;19.80;6.50;;;;;;;-1.78;76.47;97355.78;123914;1109;104479;-71
2021/01/29 06:07:38;;;;;;;18.90;7.43;;;;;;;-1.87;75.56;97353.63;123883;1109;104188;-70
2021/01/29 06:10:45;;;;;;;22.87;7.73;;;;;;;-1.95;76.37;97354.02;123936;1109;104261;-73
2021/01/29 06:13:47;;;;;;;17.40;7.03;;;;;;;-2.05;75.98;97366.66;123885;1108;104290;-72
2021/01/29 06:16:48;;;;;;;21.23;7.67;;;;;;;-2.14;76.45;97365.33;123872;1109;104182;-73
2021/01/29 06:19:40;;;;;;;19.77;8.23;;;;;;;-2.21;75.38;97368.31;123801;1109;104271;-72
2021/01/29 06:22:41;;;;;;;18.77;7.47;;;;;;;-2.28;76.01;97370.38;123721;1108;104242;-72
2021/01/29 06:25:46;;;;;;;21.60;8.85;;;;;;;-2.31;75.83;97368.74;123891;1108;104210;-72
2021/01/29 06:28:45;;;;;;;24.27;9.30;;;;;;;-2.33;75.81;97374.95;123898;1109;104214;-72
2021/01/29 06:31:44;;;;;;;22.33;9.17;;;;;;;-2.42;75.43;97377.08;123883;1109;104267;-72
2021/01/29 06:34:37;;;;;;;26.40;9.13;;;;;;;-2.51;75.96;97374.90;123794;1108;104152;-72
2021/01/29 06:37:20;;;;;;;27.97;10.57;;;;;;;-2.53;75.77;97381.94;123504;1108;104310;-73
2021/01/29 06:40:03;;;;;;;21.87;8.43;;;;;;;-2.56;76.03;97377.73;123716;1109;104344;-73
2021/01/29 06:42:49;;;;;;;26.82;11.40;;;;;;;-2.60;76.25;97381.39;123842;1109;104613;-71
2021/01/29 06:45:40;;;;;;;32.73;14.27;;;;;;;-2.61;76.21;97395.32;123786;1108;104222;-72
2021/01/29 06:48:41;;;;;;;34.73;14.80;;;;;;;-2.62;75.62;97384.95;123761;1109;104264;-72
2021/01/29 06:51:27;;;;;;;32.03;13.77;;;;;;;-2.63;76.05;97398.89;123664;1109;104272;-72
2021/01/29 06:54:01;;;;;;;28.97;12.93;;;;;;;-2.63;75.78;97393.69;123844;1106;104169;-72
2021/01/29 06:57:06;;;;;;;32.10;14.13;;;;;;;-2.65;76.63;97392.94;124067;1109;104191;-73
2021/01/29 06:59:59;;;;;;;30.90;14.57;;;;;;;-2.64;76.51;97390.25;123799;1109;104194;-72
2021/01/29 07:02:54;;;;;;;34.53;13.77;;;;;;;-2.63;75.99;97393.69;123755;1109;104258;-74
2021/01/29 07:05:46;;;;;;;32.03;13.77;;;;;;;-2.61;75.58;97391.86;123739;1108;104623;-73
2021/01/29 07:08:34;;;;;;;33.97;15.13;;;;;;;-2.61;75.59;97395.32;123820;1109;104618;-72
2021/01/29 07:11:19;;;;;;;33.73;17.03;;;;;;;-2.58;76.38;97387.37;123915;1108;104236;-73
2021/01/29 07:14:06;;;;;;;27.93;12.40;;;;;;;-2.52;76.37;97388.00;124039;1106;104223;-72
2021/01/29 07:16:45;;;;;;;28.00;13.00;;;;;;;-2.52;75.75;97388.00;123935;1109;104264;-72
2021/01/29 07:19:36;;;;;;;28.20;11.23;;;;;;;-2.55;76.96;97387.23;123913;1108;104217;-75
2021/01/29 07:22:09;;;;;;;36.13;16.20;;;;;;;-2.53;76.17;97381.11;123976;1109;104195;-73
2021/01/29 07:25:00;;;;;;;32.20;14.73;;;;;;;-2.51;75.85;97372.30;123965;1109;104182;-73
2021/01/29 07:27:33;;;;;;;35.60;15.37;;;;;;;-2.49;75.98;97380.88;123915;1109;104191;-73
2021/01/29 07:30:26;;;;;;;29.67;12.13;;;;;;;-2.45;75.87;97369.41;123904;1109;104527;-72
2021/01/29 07:33:02;;;;;;;29.53;12.97;;;;;;;-2.42;75.64;97371.01;123908;1106;104246;-71
2021/01/29 07:35:49;;;;;;;32.17;12.50;;;;;;;-2.42;76.53;97371.01;123912;1109;104191;-72
2021/01/29 07:38:35;;;;;;;31.10;14.00;;;;;;;-2.42;76.39;97379.68;123940;1109;104233;-72
2021/01/29 07:41:02;;;;;;;36.50;15.57;;;;;;;-2.40;75.83;97379.59;124020;1109;104588;-73
2021/01/29 07:43:47;;;;;;;34.80;14.85;;;;;;;-2.38;76.81;97376.93;123949;1109;104562;-75
2021/01/29 07:46:39;;;;;;;32.17;14.30;;;;;;;-2.34;75.92;97368.89;123942;1109;104182;-73
2021/01/29 07:49:28;;;;;;;36.47;15.43;;;;;;;-2.31;76.91;97363.53;124023;1109;104320;-73
2021/01/29 07:52:25;;;;;;;33.90;14.00;;;;;;;-2.29;75.84;97373.89;123960;1109;104169;-73
2021/01/29 07:55:15;;;;;;;33.93;13.83;;;;;;;-2.28;75.77;97367.77;123973;1108;104240;-74
2021/01/29 07:58:13;;;;;;;34.17;13.93;;;;;;;-2.27;76.25;97366.86;123985;1109;104159;-74
2021/01/29 08:00:53;;;;;;;28.07;11.93;;;;;;;-2.22;76.55;97377.04;123931;1109;104185;-72
2021/01/29 08:03:42;;;;;;;33.73;13.63;;;;;;;-2.22;76.38;97370.05;123944;1109;104268;-71
2021/01/29 08:06:31;;;;;;;30.33;11.97;;;;;;;-2.15;76.31;97373.23;125169;1106;102281;-73
2021/01/29 08:09:11;;;;;;;30.00;12.10;;;;;;;-2.08;75.63;97378.97;124149;1108;104204;-74
2021/01/29 08:11:43;;;;;;;27.23;11.30;;;;;;;-1.98;76.11;97375.01;123931;1109;104328;-72
2021/01/29 08:14:50;;;;;;;31.87;12.97;;;;;;;-1.92;76.36;97379.06;123954;1109;104182;-72
2021/01/29 08:18:06;;;;;;;34.40;15.50;;;;;;;-1.86;75.78;97374.41;124235;1109;104191;-72
2021/01/29 08:20:57;;;;;;;33.05;15.32;;;;;;;-1.72;76.00;97371.11;124002;1106;104248;-71
2021/01/29 08:23:33;;;;;;;40.80;17.70;;;;;;;-1.58;76.00;97375.62;123937;1107;104188;-72
2021/01/29 08:26:03;;;;;;;37.55;17.55;;;;;;;-1.43;76.22;97381.00;123914;1106;104328;-72
2021/01/29 08:28:33;;;;;;;33.37;15.17;;;;;;;-1.33;76.44;97365.70;123998;1105;104188;-72
2021/01/29 08:31:40;;;;;;;33.40;15.17;;;;;;;-1.29;75.82;97364.63;124015;1108;104261;-72
2021/01/29 08:34:28;;;;;;;36.65;16.30;;;;;;;-1.25;76.61;97358.33;123886;1106;104281;-73
2021/01/29 08:37:04;;;;;;;36.57;16.73;;;;;;;-1.20;76.50;97351.08;123937;1106;104193;-73
2021/01/29 08:39:58;;;;;;;33.17;14.63;;;;;;;-1.23;76.01;97356.48;124005;1108;104281;-72
2021/01/29 08:43:03;;;;;;;32.80;14.43;;;;;;;-1.23;76.07;97357.31;123947;1106;104268;-72
2021/01/29 08:45:50;;;;;;;33.00;15.27;;;;;;;-1.14;76.35;97360.37;123985;1105;104188;-72
2021/01/29 08:49:00;;;;;;;32.47;14.40;;;;;;;-1.12;76.01;97355.91;123932;1106;104169;-72
2021/01/29 08:51:39;;;;;;;31.70;13.67;;;;;;;-1.07;76.12;97367.78;124085;1106;104185;-72
2021/01/29 08:54:46;;;;;;;34.20;15.53;;;;;;;-0.99;75.99;97348.27;124589;1109;104364;-73
2021/01/29 08:57:48;;;;;;;31.53;13.87;;;;;;;-0.90;75.66;97353.00;124303;1109;104268;-72
2021/01/29 09:00:32;;;;;;;30.17;12.13;;;;;;;-0.80;76.05;97348.95;123860;1108;104708;-73
2021/01/29 09:03:08;;;;;;;25.73;10.33;;;;;;;-0.71;76.25;97344.16;124436;1108;105210;-73
2021/01/29 09:05:43;;;;;;;24.07;9.57;;;;;;;-0.58;76.19;97344.33;123897;1109;104205;-73
2021/01/29 09:08:19;;;;;;;25.50;10.67;;;;;;;-0.40;76.31;97335.48;123841;1109;104191;-76
2021/01/29 09:11:05;;;;;;;31.80;13.00;;;;;;;-0.18;76.43;97340.34;124086;1096;104168;-72
2021/01/29 09:13:35;;;;;;;30.33;12.53;;;;;;;0.06;76.25;97326.77;123889;1108;104277;-73
2021/01/29 09:16:08;;;;;;;28.13;12.27;;;;;;;0.35;75.99;97332.09;123956;1109;104259;-72
2021/01/29 09:18:44;;;;;;;24.87;9.47;;;;;;;0.77;75.68;97332.22;124704;1108;104133;-72
2021/01/29 09:21:15;;;;;;;22.43;9.83;;;;;;;1.00;76.18;97333.43;124066;1109;104280;-73
2021/01/29 09:23:50;;;;;;;24.67;8.73;;;;;;;1.31;76.00;97333.30;123907;1109;104188;-72
2021/01/29 09:26:39;;;;;;;23.23;8.17;;;;;;;1.51;75.63;97326.80;123914;1108;104759;-72
2021/01/29 09:29:20;;;;;;;20.17;7.83;;;;;;;1.85;75.49;97335.11;123863;1108;104190;-75
2021/01/29 09:32:00;;;;;;;22.50;8.03;;;;;;;2.18;75.36;97330.38;124595;1108;104259;-73
2021/01/29 09:34:54;;;;;;;22.67;8.20;;;;;;;2.62;75.68;97323.92;123923;1106;104525;-74
2021/01/29 09:37:29;;;;;;;20.90;7.73;;;;;;;3.04;74.62;97321.03;123835;1109;104223;-73
2021/01/29 09:40:07;;;;;;;19.57;6.90;;;;;;;3.41;74.70;97309.72;124114;1105;104219;-75
2021/01/29 09:42:43;;;;;;;16.47;6.47;;;;;;;3.71;74.90;97311.89;123908;1109;104338;-73
2021/01/29 09:45:31;;;;;;;19.33;7.60;;;;;;;3.90;75.02;97313.19;125142;1109;103008;-74
2021/01/29 09:48:00;;;;;;;22.33;7.37;;;;;;;4.03;75.37;97302.59;123934;1109;104278;-73
2021/01/29 09:50:32;;;;;;;15.73;5.83;;;;;;;3.95;75.09;97312.84;123962;1105;104210;-74
2021/01/29 09:53:05;;;;;;;20.33;7.40;;;;;;;3.84;75.27;97311.00;123997;1108;104153;-74
2021/01/29 09:55:32;;;;;;;21.15;6.80;;;;;;;3.76;75.36;97303.69;124767;1109;102907;-74
2021/01/29 09:58:31;;;;;;;18.90;8.50;;;;;;;3.52;74.61;97309.77;124309;1107;104172;-72
2021/01/29 10:01:13;;;;;;;19.40;7.27;;;;;;;3.41;75.56;97312.34;124060;1106;104332;-74
2021/01/29 10:04:20;;;;;;;23.33;7.07;;;;;;;3.22;74.73;97312.82;124524;1107;104201;-74
2021/01/29 10:06:54;;;;;;;23.07;7.83;;;;;;;3.08;74.61;97296.23;124550;1108;104156;-74
2021/01/29 10:09:28;;;;;;;21.70;8.30;;;;;;;3.07;75.79;97298.95;124006;1107;104348;-74
2021/01/29 10:12:06;;;;;;;19.30;7.33;;;;;;;2.99;75.19;97299.50;124443;1108;104207;-73
2021/01/29 10:14:59;;;;;;;21.00;8.07;;;;;;;2.90;75.59;97303.63;123987;1108;104314;-70
2021/01/29 10:17:43;;;;;;;20.57;7.60;;;;;;;2.95;75.46;97308.55;123941;1106;104316;-73
2021/01/29 10:20:29;;;;;;;20.50;8.20;;;;;;;2.97;75.36;97311.90;123967;1109;104175;-73
2021/01/29 10:23:38;;;;;;;19.05;7.65;;;;;;;3.14;75.94;97313.34;123954;1108;104243;-75
2021/01/29 10:26:19;;;;;;;22.23;8.13;;;;;;;3.19;75.23;97311.23;125075;1108;104271;-75
2021/01/29 10:28:46;;;;;;;20.23;6.63;;;;;;;3.24;75.33;97316.19;123945;1108;104341;-74
2021/01/29 10:31:16;;;;;;;18.40;6.63;;;;;;;3.25;75.13;97313.43;123897;1108;104197;-74
2021/01/29 10:33:48;;;;;;;17.70;6.15;;;;;;;3.27;75.54;97308.05;124179;1106;104169;-76
2021/01/29 10:36:31;;;;;;;14.97;4.50;;;;;;;3.22;75.38;97312.82;123996;1109;104227;-73
2021/01/29 10:39:04;;;;;;;13.33;4.33;;;;;;;3.07;74.96;97315.57;123987;1107;104192;-75
2021/01/29 10:41:40;;;;;;;12.40;3.83;;;;;;;2.96;74.43;97316.33;123928;1109;104431;-73
2021/01/29 10:44:22;;;;;;;12.67;3.77;;;;;;;2.81;74.93;97306.88;123980;1106;104162;-73
2021/01/29 10:46:59;;;;;;;13.97;4.90;;;;;;;2.83;75.23;97290.09;123983;1109;104184;-73
2021/01/29 10:49:45;;;;;;;16.67;5.03;;;;;;;3.06;75.36;97300.76;123936;1105;104400;-74
2021/01/29 10:52:16;;;;;;;16.27;5.43;;;;;;;3.26;75.44;97291.46;123997;1105;104288;-73
2021/01/29 10:54:46;;;;;;;15.60;6.00;;;;;;;3.45;75.15;97300.66;124006;1109;104428;-73
2021/01/29 10:57:24;;;;;;;17.70;5.40;;;;;;;3.57;75.16;97297.13;124087;1109;102841;-73
2021/01/29 10:59:58;;;;;;;16.43;5.20;;;;;;;3.69;74.53;97294.56;123991;1108;104159;-72
2021/01/29 11:02:43;;;;;;;17.47;5.27;;;;;;;3.79;74.94;97299.98;123814;1108;104136;-73
2021/01/29 11:05:19;;;;;;;17.55;6.70;;;;;;;3.81;74.71;97293.67;123992;1108;104190;-73
2021/01/29 11:07:50;;;;;;;15.30;4.87;;;;;;;3.79;74.41;97295.58;123890;1109;104428;-74
2021/01/29 11:10:17;;;;;;;14.97;5.70;;;;;;;3.76;74.47;97297.57;123875;1106;104232;-73
2021/01/29 11:12:51;;;;;;;15.43;5.42;;;;;;;3.81;74.39;97287.56;123856;1109;104265;-73
2021/01/29 11:15:45;;;;;;;17.85;5.58;;;;;;;3.90;74.48;97289.52;124042;1109;104322;-73
2021/01/29 11:18:29;;;;;;;16.50;6.00;;;;;;;3.84;74.42;97274.19;124475;1109;104280;-72
2021/01/29 11:21:30;;;;;;;17.85;6.12;;;;;;;3.79;74.32;97273.68;123802;1108;103133;-72
2021/01/29 11:24:09;;;;;;;18.07;5.83;;;;;;;3.79;74.01;97278.94;123848;1109;104159;-72
2021/01/29 11:26:47;;;;;;;17.00;6.23;;;;;;;3.78;73.93;97280.75;123877;1109;104217;-73
2021/01/29 11:29:20;;;;;;;19.35;6.60;;;;;;;3.86;73.94;97267.02;123861;1108;104326;-72
2021/01/29 11:32:25;;;;;;;17.37;6.97;;;;;;;3.84;73.97;97267.15;123773;1106;104165;-74
2021/01/29 11:35:24;;;;;;;21.33;7.30;;;;;;;3.92;73.99;97261.31;123848;1109;104328;-75
2021/01/29 11:37:54;;;;;;;19.03;7.53;;;;;;;4.02;74.17;97249.15;123796;1109;104174;-72
2021/01/29 11:40:25;;;;;;;19.87;7.20;;;;;;;4.09;73.93;97246.89;123875;1105;104252;-73
2021/01/29 11:43:11;;;;;;;15.67;5.97;;;;;;;4.12;73.73;97240.53;123935;1108;104644;-72
2021/01/29 11:45:47;;;;;;;16.60;6.50;;;;;;;4.06;73.41;97247.11;123830;1109;104283;-74
2021/01/29 11:48:51;;;;;;;15.13;5.90;;;;;;;4.04;73.48;97250.83;123798;1109;104223;-74
2021/01/29 11:51:38;;;;;;;20.40;7.00;;;;;;;4.02;73.38;97245.66;123809;1108;104632;-74
2021/01/29 11:54:35;;;;;;;17.93;7.03;;;;;;;4.06;73.81;97243.66;123963;1109;104252;-75
2021/01/29 11:57:15;;;;;;;18.00;6.87;;;;;;;4.05;73.64;97226.20;123824;1109;104203;-75
2021/01/29 12:00:08;;;;;;;20.07;7.40;;;;;;;4.01;73.17;97218.53;124838;1106;104188;-74
2021/01/29 12:02:49;;;;;;;18.90;7.10;;;;;;;4.01;73.48;97218.53;123923;1109;104312;-74
2021/01/29 12:05:27;;;;;;;19.50;7.75;;;;;;;4.00;73.12;97216.86;123896;1109;104201;-74
2021/01/29 12:08:04;;;;;;;19.60;7.10;;;;;;;4.09;73.46;97206.56;123900;1109;104616;-74
2021/01/29 12:10:46;;;;;;;15.40;5.60;;;;;;;4.19;73.63;97209.35;123915;1108;104163;-74
2021/01/29 12:13:23;;;;;;;18.80;6.70;;;;;;;4.14;72.97;97209.69;123896;1108;104159;-74
2021/01/29 12:16:03;;;;;;;19.17;6.73;;;;;;;4.14;72.90;97207.91;123845;1107;104233;-74
2021/01/29 12:18:35;;;;;;;18.77;6.13;;;;;;;4.12;73.06;97209.81;123782;1109;104169;-75